logo
Search for airport 
image banner adimage banner adimage banner ad
image banner ad

FAUS - Ulusaba

Located in , South Africa

ICAO - , IATA - ULX

Data provided by Airmate  

General information

Coordinates: S24°47'6" E31°21'18"
Elevation is 1440 feet MSL.
 
View others Airports in Limpopo

Operational data

Special qualification required
Current time UTC:
Current local time:
TAF: TAF FAKN 220600Z 2207/2218 VRB03KT 9999 SCT030 TX22/2213Z TN17/2218Z
View NOTAMs / SUP AIP / TFR affecting this airport [VIEW]
Communications frequencies: [VIEW]

Runways:

RWY identifierQFULength (ft)Width (ft)SurfaceLDA (ft)
18194°442966ASPH
3614°442966ASPH

Airport contact information

Address: South Africa

Satellite view of FAUS